Time;durP1;ratioP1;P1;durP2;ratioP2;P2;SDS_P1;SDS_P2;PMS_P1;PMS_P2;Temp;Humidity;BMP_temperature;BMP_pressure;BME280_temperature;BME280_humidity;BME280_pressure;Samples;Min_cycle;Max_cycle;Signal;HPM_P1;HPM_P2
2023/06/24 00:01:12;;;;;;;;;;;20.80;74.60;;;;;;4983973;28;1898;-67
2023/06/24 00:03:38;;;;;;;;;;;20.90;74.60;;;;;;4982854;28;1519;-68
2023/06/24 00:06:03;;;;;;;;;;;20.90;74.70;;;;;;4985189;28;999;-68
2023/06/24 00:08:34;;;;;;;;;;;20.80;74.60;;;;;;4985013;28;1368;-68
2023/06/24 00:11:02;;;;;;;;;;;20.90;74.60;;;;;;4983710;28;1083;-68
2023/06/24 00:13:28;;;;;;;;;;;20.90;74.60;;;;;;4982412;28;915;-68
2023/06/24 00:15:54;;;;;;;;;;;20.90;74.60;;;;;;4986375;28;875;-68
2023/06/24 00:18:19;;;;;;;;;;;20.90;74.60;;;;;;4987707;28;1296;-68
2023/06/24 00:20:45;;;;;;;;;;;20.80;74.60;;;;;;4987705;28;923;-68
2023/06/24 00:23:14;;;;;;;;;;;20.90;74.60;;;;;;4983230;28;1899;-68
2023/06/24 00:25:39;;;;;;;;;;;20.90;74.60;;;;;;4979773;28;838;-68
2023/06/24 00:28:05;;;;;;;;;;;20.90;74.60;;;;;;4983180;28;1544;-67
2023/06/24 00:30:30;;;;;;;;;;;20.90;74.70;;;;;;4984110;28;1271;-68
2023/06/24 00:32:56;;;;;;;;;;;20.80;74.60;;;;;;4985695;28;1034;-68
2023/06/24 00:35:22;;;;;;;;;;;20.90;74.60;;;;;;4983012;28;808;-68
2023/06/24 00:37:47;;;;;;;;;;;20.90;74.70;;;;;;4984663;28;848;-67
2023/06/24 00:40:15;;;;;;;;;;;20.80;74.60;;;;;;4984815;28;1381;-68
2023/06/24 00:42:41;;;;;;;;;;;20.80;74.60;;;;;;4986499;28;1959;-68
2023/06/24 00:45:07;;;;;;;;;;;20.80;74.70;;;;;;4984180;28;905;-68
2023/06/24 00:47:33;;;;;;;;;;;20.80;74.60;;;;;;4984683;28;1617;-68
2023/06/24 00:49:58;;;;;;;;;;;20.80;74.60;;;;;;4987809;28;1283;-68
2023/06/24 00:52:24;;;;;;;;;;;20.90;74.70;;;;;;4984929;28;939;-67
2023/06/24 00:54:49;;;;;;;;;;;20.80;74.60;;;;;;4984722;28;1001;-68
2023/06/24 00:57:15;;;;;;;;;;;20.90;74.70;;;;;;4980450;28;920;-67
2023/06/24 00:59:42;;;;;;;;;;;20.90;74.70;;;;;;4985577;28;1355;-68
2023/06/24 01:02:08;;;;;;;;;;;20.80;74.60;;;;;;4980359;28;1906;-68
2023/06/24 01:04:34;;;;;;;;;;;20.90;74.70;;;;;;4988082;28;836;-68
2023/06/24 01:07:00;;;;;;;;;;;20.90;74.70;;;;;;4984276;28;1038;-68
2023/06/24 01:09:25;;;;;;;;;;;20.90;74.70;;;;;;4985096;28;1391;-68
2023/06/24 01:11:51;;;;;;;;;;;20.80;74.60;;;;;;4987732;28;1187;-68
2023/06/24 01:14:19;;;;;;;;;;;20.80;74.60;;;;;;4982260;28;958;-68
2023/06/24 01:16:57;;;;;;;;;;;20.80;75.30;;;;;;4985235;28;843;-67
2023/06/24 01:19:34;;;;;;;;;;;20.80;74.60;;;;;;4984223;28;1291;-68
2023/06/24 01:22:11;;;;;;;;;;;20.80;74.70;;;;;;4986023;28;1918;-68
2023/06/24 01:24:55;;;;;;;;;;;20.80;74.60;;;;;;4978411;28;1024;-68
2023/06/24 01:27:25;;;;;;;;;;;20.80;74.60;;;;;;4981110;28;1457;-68
2023/06/24 01:30:09;;;;;;;;;;;20.80;74.60;;;;;;4988478;28;1287;-68
2023/06/24 01:32:44;;;;;;;;;;;20.90;74.70;;;;;;4984790;28;1042;-68
2023/06/24 01:35:20;;;;;;;;;;;20.80;74.60;;;;;;4989726;28;826;-67
2023/06/24 01:37:52;;;;;;;;;;;20.90;74.70;;;;;;4986451;28;849;-68
2023/06/24 01:40:27;;;;;;;;;;;20.80;74.70;;;;;;4988269;28;1357;-68
2023/06/24 01:42:53;;;;;;;;;;;20.80;74.70;;;;;;4984892;28;1973;-68
2023/06/24 01:45:19;;;;;;;;;;;20.80;74.70;;;;;;4987175;28;920;-67
2023/06/24 01:47:45;;;;;;;;;;;20.80;74.70;;;;;;4991845;28;1122;-68
2023/06/24 01:50:11;;;;;;;;;;;20.80;74.70;;;;;;4984909;28;1366;-68
2023/06/24 01:52:37;;;;;;;;;;;20.90;74.70;;;;;;4991786;28;900;-68
2023/06/24 01:55:02;;;;;;;;;;;20.80;74.70;;;;;;4988863;28;892;-68
2023/06/24 01:57:28;;;;;;;;;;;20.80;74.60;;;;;;4986595;28;1011;-68
2023/06/24 01:59:53;;;;;;;;;;;20.80;74.60;;;;;;5002383;28;1271;-67
2023/06/24 02:02:20;;;;;;;;;;;20.80;74.70;;;;;;4985553;28;1962;-68
2023/06/24 02:04:45;;;;;;;;;;;20.80;74.60;;;;;;4981282;28;801;-67
2023/06/24 02:07:11;;;;;;;;;;;20.80;74.60;;;;;;4988098;28;1006;-68
2023/06/24 02:09:36;;;;;;;;;;;20.80;74.70;;;;;;4991897;28;1285;-68
2023/06/24 02:12:02;;;;;;;;;;;20.80;74.60;;;;;;4984445;28;1543;-68
2023/06/24 02:14:28;;;;;;;;;;;20.90;74.70;;;;;;4985988;28;816;-68
2023/06/24 02:16:56;;;;;;;;;;;20.90;74.70;;;;;;4985318;28;838;-67
2023/06/24 02:19:22;;;;;;;;;;;20.80;74.70;;;;;;4984797;28;1397;-68
2023/06/24 02:21:47;;;;;;;;;;;20.80;74.70;;;;;;4992339;28;1941;-68
2023/06/24 02:24:13;;;;;;;;;;;20.80;74.70;;;;;;4963598;28;1187;-67
2023/06/24 02:26:40;;;;;;;;;;;20.90;74.70;;;;;;4982066;28;900;-68
2023/06/24 02:29:07;;;;;;;;;;;20.80;74.70;;;;;;4990575;28;1364;-68
2023/06/24 02:31:33;;;;;;;;;;;20.90;74.70;;;;;;4985086;28;883;-68
2023/06/24 02:33:58;;;;;;;;;;;20.80;74.70;;;;;;4992027;28;892;-68
2023/06/24 02:36:24;;;;;;;;;;;20.80;74.70;;;;;;4988709;28;928;-68
2023/06/24 02:38:49;;;;;;;;;;;20.80;74.70;;;;;;4987805;28;1281;-68
2023/06/24 02:41:15;;;;;;;;;;;20.80;74.60;;;;;;4985032;28;1983;-68
2023/06/24 02:43:40;;;;;;;;;;;20.80;75.40;;;;;;4987841;28;1037;-68
2023/06/24 02:46:06;;;;;;;;;;;20.80;74.70;;;;;;4985539;28;1311;-68
2023/06/24 02:48:31;;;;;;;;;;;20.80;74.70;;;;;;4986065;28;1424;-68
2023/06/24 02:50:57;;;;;;;;;;;20.80;74.70;;;;;;4986435;28;1403;-68
2023/06/24 02:53:23;;;;;;;;;;;20.80;74.70;;;;;;5001916;28;1559;-69
2023/06/24 02:55:48;;;;;;;;;;;20.80;74.70;;;;;;4986320;28;1369;-68
2023/06/24 02:58:14;;;;;;;;;;;20.80;74.70;;;;;;4984599;28;1272;-68
2023/06/24 03:00:39;;;;;;;;;;;20.80;74.70;;;;;;4991360;28;1683;-68
2023/06/24 03:03:05;;;;;;;;;;;20.80;74.70;;;;;;4989251;28;1960;-68
2023/06/24 03:05:31;;;;;;;;;;;20.80;74.70;;;;;;4985141;28;1354;-68
2023/06/24 03:07:56;;;;;;;;;;;20.80;74.70;;;;;;5002133;28;827;-68
2023/06/24 03:10:23;;;;;;;;;;;20.80;74.70;;;;;;4984726;28;1216;-68
2023/06/24 03:12:48;;;;;;;;;;;20.80;74.70;;;;;;4975595;28;1290;-69
2023/06/24 03:15:14;;;;;;;;;;;20.80;74.70;;;;;;4988191;28;820;-69
2023/06/24 03:17:39;;;;;;;;;;;20.80;74.70;;;;;;4987679;28;884;-69
2023/06/24 03:20:06;;;;;;;;;;;20.80;74.70;;;;;;4991118;28;1268;-69
2023/06/24 03:22:31;;;;;;;;;;;20.80;74.70;;;;;;4987203;28;1965;-68
2023/06/24 03:24:57;;;;;;;;;;;20.80;74.70;;;;;;4984504;28;892;-69
2023/06/24 03:27:22;;;;;;;;;;;20.80;74.70;;;;;;4984820;28;1369;-69
2023/06/24 03:29:47;;;;;;;;;;;20.80;74.70;;;;;;4984953;28;1320;-69
2023/06/24 03:32:13;;;;;;;;;;;20.80;74.70;;;;;;4988064;28;858;-69
2023/06/24 03:34:38;;;;;;;;;;;20.80;74.70;;;;;;4985647;28;836;-69
2023/06/24 03:37:04;;;;;;;;;;;20.80;74.70;;;;;;4982708;28;856;-69
2023/06/24 03:39:29;;;;;;;;;;;20.80;74.70;;;;;;4988502;28;1380;-69
2023/06/24 03:41:55;;;;;;;;;;;20.80;74.70;;;;;;4985760;28;1965;-69
2023/06/24 03:44:20;;;;;;;;;;;20.80;74.70;;;;;;4987884;28;928;-69
2023/06/24 03:46:46;;;;;;;;;;;20.80;74.70;;;;;;4987926;28;872;-69
2023/06/24 03:49:11;;;;;;;;;;;20.80;74.70;;;;;;4986742;28;1247;-68
2023/06/24 03:51:37;;;;;;;;;;;20.80;74.70;;;;;;4989397;28;799;-68
2023/06/24 03:54:02;;;;;;;;;;;20.80;74.70;;;;;;4984185;28;828;-68
2023/06/24 03:56:27;;;;;;;;;;;20.80;74.70;;;;;;4984389;28;883;-68
2023/06/24 03:58:53;;;;;;;;;;;20.80;74.70;;;;;;4985057;28;1360;-68
2023/06/24 04:01:19;;;;;;;;;;;20.80;74.70;;;;;;4985702;28;1898;-68
2023/06/24 04:03:45;;;;;;;;;;;20.80;74.70;;;;;;4987158;28;867;-68
2023/06/24 04:06:10;;;;;;;;;;;20.80;74.80;;;;;;4986847;28;844;-68
2023/06/24 04:08:39;;;;;;;;;;;20.80;74.70;;;;;;4987022;28;1252;-68
2023/06/24 04:11:06;;;;;;;;;;;20.80;74.70;;;;;;4984371;28;1293;-68
2023/06/24 04:13:32;;;;;;;;;;;20.80;75.50;;;;;;4983900;28;820;-68
2023/06/24 04:15:57;;;;;;;;;;;20.80;74.70;;;;;;4983894;28;895;-68
2023/06/24 04:18:23;;;;;;;;;;;20.80;74.80;;;;;;4984786;28;1369;-68
2023/06/24 04:20:48;;;;;;;;;;;20.80;74.70;;;;;;4984663;28;903;-69
2023/06/24 04:23:14;;;;;;;;;;;20.80;74.70;;;;;;4986189;28;1902;-67
2023/06/24 04:25:40;;;;;;;;;;;20.80;74.80;;;;;;4984384;28;1889;-67
2023/06/24 04:28:05;;;;;;;;;;;20.80;74.70;;;;;;4984730;28;1466;-67
2023/06/24 04:30:31;;;;;;;;;;;20.80;74.70;;;;;;4985966;28;1342;-67
2023/06/24 04:32:56;;;;;;;;;;;20.80;74.70;;;;;;4987683;28;967;-68
2023/06/24 04:35:22;;;;;;;;;;;20.80;74.80;;;;;;4984877;28;970;-68
2023/06/24 04:37:49;;;;;;;;;;;20.80;74.80;;;;;;4984069;28;844;-68
2023/06/24 04:40:15;;;;;;;;;;;20.80;74.80;;;;;;4983581;28;1252;-67
2023/06/24 04:42:40;;;;;;;;;;;20.80;74.80;;;;;;4981647;28;1915;-67
2023/06/24 04:45:06;;;;;;;;;;;20.80;74.70;;;;;;4987634;28;893;-68
2023/06/24 04:47:31;;;;;;;;;;;20.80;74.80;;;;;;4985070;28;954;-68
2023/06/24 04:49:57;;;;;;;;;;;20.80;74.80;;;;;;4983283;28;1207;-68
2023/06/24 04:52:23;;;;;;;;;;;20.80;74.80;;;;;;4987972;28;892;-67
2023/06/24 04:54:48;;;;;;;;;;;20.80;74.80;;;;;;4985053;28;891;-68
2023/06/24 04:57:27;;;;;;;;;;;20.80;74.80;;;;;;4985278;28;994;-68
2023/06/24 04:59:52;;;;;;;;;;;20.80;74.80;;;;;;4982717;28;1260;-68
2023/06/24 05:02:18;;;;;;;;;;;20.80;74.80;;;;;;4980969;28;1902;-67
2023/06/24 05:04:43;;;;;;;;;;;20.80;74.70;;;;;;4986231;28;823;-67
2023/06/24 05:07:09;;;;;;;;;;;20.80;74.80;;;;;;4984445;28;1168;-67
2023/06/24 05:09:37;;;;;;;;;;;20.80;74.70;;;;;;4982181;28;1271;-68
2023/06/24 05:12:03;;;;;;;;;;;20.80;74.80;;;;;;4983977;28;1329;-68
2023/06/24 05:14:29;;;;;;;;;;;20.80;74.80;;;;;;4983267;28;1018;-69
2023/06/24 05:16:54;;;;;;;;;;;20.80;74.70;;;;;;4984949;28;812;-71
2023/06/24 05:19:20;;;;;;;;;;;20.80;74.80;;;;;;4986010;28;1256;-68
2023/06/24 05:21:45;;;;;;;;;;;20.80;74.80;;;;;;4985094;28;1981;-69
2023/06/24 05:24:10;;;;;;;;;;;20.80;74.80;;;;;;4984492;28;998;-68
2023/06/24 05:26:36;;;;;;;;;;;20.80;74.70;;;;;;4986673;28;1236;-68
2023/06/24 05:29:01;;;;;;;;;;;20.80;74.70;;;;;;4983531;28;1260;-68
2023/06/24 05:31:27;;;;;;;;;;;20.80;74.80;;;;;;4984820;28;1350;-68
2023/06/24 05:33:52;;;;;;;;;;;20.80;74.80;;;;;;4985132;28;1025;-69
2023/06/24 05:36:18;;;;;;;;;;;20.80;74.80;;;;;;4986813;28;836;-68
2023/06/24 05:38:43;;;;;;;;;;;20.80;74.80;;;;;;4987302;28;1279;-67
2023/06/24 05:41:08;;;;;;;;;;;20.80;74.80;;;;;;4980844;28;1903;-68
2023/06/24 05:43:34;;;;;;;;;;;20.80;74.80;;;;;;4984027;28;959;-69
2023/06/24 05:46:00;;;;;;;;;;;20.80;74.80;;;;;;4986895;28;887;-70
2023/06/24 05:48:25;;;;;;;;;;;20.80;74.80;;;;;;4982878;28;1351;-70
2023/06/24 05:50:51;;;;;;;;;;;20.80;74.80;;;;;;4980915;28;998;-69
2023/06/24 05:53:16;;;;;;;;;;;20.80;74.80;;;;;;4979043;28;865;-69
2023/06/24 05:55:42;;;;;;;;;;;20.80;74.80;;;;;;4982795;28;868;-69
2023/06/24 05:58:07;;;;;;;;;;;20.80;74.80;;;;;;4982952;28;1345;-68
2023/06/24 06:00:36;;;;;;;;;;;20.80;74.80;;;;;;4982127;28;1173;-68
2023/06/24 06:03:02;;;;;;;;;;;20.80;74.80;;;;;;4980195;28;1906;-71
2023/06/24 06:05:27;;;;;;;;;;;20.80;74.80;;;;;;4983600;28;838;-68
2023/06/24 06:07:53;;;;;;;;;;;20.80;74.80;;;;;;4980577;28;863;-69
2023/06/24 06:10:19;;;;;;;;;;;20.80;74.80;;;;;;4985566;28;1276;-69
2023/06/24 06:12:45;;;;;;;;;;;20.80;74.90;;;;;;4983623;28;911;-67
2023/06/24 06:15:10;;;;;;;;;;;20.80;74.80;;;;;;4983032;28;1043;-68
2023/06/24 06:17:35;;;;;;;;;;;20.80;74.80;;;;;;4981063;28;1023;-68
2023/06/24 06:20:01;;;;;;;;;;;20.80;74.80;;;;;;4986714;28;1371;-68
2023/06/24 06:22:26;;;;;;;;;;;20.80;74.80;;;;;;4989095;28;1971;-67
2023/06/24 06:24:52;;;;;;;;;;;20.80;74.80;;;;;;4986704;28;812;-66
2023/06/24 06:27:17;;;;;;;;;;;20.80;74.80;;;;;;4987752;28;2147;-66
2023/06/24 06:29:43;;;;;;;;;;;20.80;74.80;;;;;;4985464;28;1380;-67
2023/06/24 06:32:08;;;;;;;;;;;20.80;74.80;;;;;;4986071;28;1254;-71
2023/06/24 06:34:34;;;;;;;;;;;20.80;74.80;;;;;;4985118;28;1195;-66
2023/06/24 06:36:59;;;;;;;;;;;20.80;74.80;;;;;;4988101;28;1094;-67
2023/06/24 06:39:25;;;;;;;;;;;20.80;74.80;;;;;;4990088;28;1700;-67
2023/06/24 06:41:50;;;;;;;;;;;20.80;74.80;;;;;;4989335;28;1906;-66
2023/06/24 06:44:15;;;;;;;;;;;20.80;75.50;;;;;;4990813;28;1233;-67
2023/06/24 06:46:41;;;;;;;;;;;20.80;74.80;;;;;;4987307;28;1025;-67
2023/06/24 06:49:06;;;;;;;;;;;20.80;74.80;;;;;;4982736;28;1263;-67
2023/06/24 06:51:32;;;;;;;;;;;20.80;74.80;;;;;;4990304;28;859;-68
2023/06/24 06:53:57;;;;;;;;;;;20.80;74.80;;;;;;4988188;28;895;-69
2023/06/24 06:56:24;;;;;;;;;;;20.80;74.80;;;;;;4987443;28;1041;-68
2023/06/24 06:58:50;;;;;;;;;;;20.80;74.80;;;;;;4985971;28;1328;-68
2023/06/24 07:01:15;;;;;;;;;;;20.80;74.80;;;;;;4985348;28;2103;-68
2023/06/24 07:03:40;;;;;;;;;;;20.80;74.80;;;;;;4983832;28;1451;-68
2023/06/24 07:06:06;;;;;;;;;;;20.80;74.80;;;;;;4987760;28;1360;-68
2023/06/24 07:08:31;;;;;;;;;;;20.80;74.80;;;;;;4989406;28;1305;-69
2023/06/24 07:10:57;;;;;;;;;;;20.80;74.80;;;;;;4986779;28;1234;-69
2023/06/24 07:13:22;;;;;;;;;;;20.80;74.80;;;;;;4985621;28;892;-69
2023/06/24 07:15:48;;;;;;;;;;;20.80;74.80;;;;;;4987765;28;805;-68
2023/06/24 07:18:13;;;;;;;;;;;20.80;74.80;;;;;;4986202;28;808;-68
2023/06/24 07:20:39;;;;;;;;;;;20.80;74.80;;;;;;4985639;28;1275;-68
2023/06/24 07:23:04;;;;;;;;;;;20.80;74.80;;;;;;4983687;28;1965;-68
2023/06/24 07:25:30;;;;;;;;;;;20.80;74.80;;;;;;4987313;28;811;-68
2023/06/24 07:27:55;;;;;;;;;;;20.80;74.80;;;;;;4989286;28;1070;-68
2023/06/24 07:30:21;;;;;;;;;;;20.80;74.80;;;;;;4986521;28;1376;-67
2023/06/24 07:32:46;;;;;;;;;;;20.80;74.80;;;;;;4988728;28;915;-69
2023/06/24 07:35:13;;;;;;;;;;;20.80;74.80;;;;;;4988469;28;803;-69
2023/06/24 07:37:38;;;;;;;;;;;20.80;74.80;;;;;;4985714;28;824;-69
2023/06/24 07:40:05;;;;;;;;;;;20.80;74.80;;;;;;4980574;28;1279;-68
2023/06/24 07:42:30;;;;;;;;;;;20.80;75.60;;;;;;4983553;28;1973;-69
2023/06/24 07:44:56;;;;;;;;;;;20.80;74.80;;;;;;4987696;28;820;-69
2023/06/24 07:47:22;;;;;;;;;;;20.80;74.80;;;;;;4982806;28;813;-68
2023/06/24 07:49:47;;;;;;;;;;;20.80;74.80;;;;;;4987101;28;1369;-68
2023/06/24 07:52:13;;;;;;;;;;;20.80;74.80;;;;;;4984176;28;834;-69
2023/06/24 07:54:38;;;;;;;;;;;20.80;74.80;;;;;;4988485;28;805;-68
2023/06/24 07:57:03;;;;;;;;;;;20.80;74.80;;;;;;4984749;28;954;-68
2023/06/24 07:59:29;;;;;;;;;;;20.80;74.80;;;;;;4981938;28;1257;-68
2023/06/24 08:01:54;;;;;;;;;;;20.80;74.80;;;;;;4986803;28;1947;-68
2023/06/24 08:04:20;;;;;;;;;;;20.80;74.80;;;;;;4987934;28;951;-67
2023/06/24 08:06:45;;;;;;;;;;;20.80;74.80;;;;;;4987530;28;974;-68
2023/06/24 08:09:11;;;;;;;;;;;20.80;74.80;;;;;;4986463;28;1276;-68
2023/06/24 08:11:36;;;;;;;;;;;20.80;74.80;;;;;;4984480;28;938;-68
2023/06/24 08:14:02;;;;;;;;;;;20.80;74.80;;;;;;4985903;28;810;-68
2023/06/24 08:16:27;;;;;;;;;;;20.80;75.50;;;;;;4986410;28;875;-68
2023/06/24 08:18:53;;;;;;;;;;;20.80;74.80;;;;;;4983257;28;1264;-68
2023/06/24 08:21:21;;;;;;;;;;;20.80;74.80;;;;;;4984723;28;1903;-68
2023/06/24 08:23:48;;;;;;;;;;;20.80;74.80;;;;;;4985761;28;880;-68
2023/06/24 08:26:13;;;;;;;;;;;20.80;74.70;;;;;;4988066;28;1351;-68
2023/06/24 08:28:38;;;;;;;;;;;20.80;74.80;;;;;;4985557;28;1482;-68
2023/06/24 08:31:04;;;;;;;;;;;20.80;74.80;;;;;;4986864;28;830;-68
2023/06/24 08:33:29;;;;;;;;;;;20.80;74.80;;;;;;4986424;28;780;-68
2023/06/24 08:35:55;;;;;;;;;;;20.80;74.80;;;;;;4984563;28;927;-68
2023/06/24 08:38:20;;;;;;;;;;;20.80;74.80;;;;;;4985322;28;1285;-68
2023/06/24 08:40:46;;;;;;;;;;;20.80;74.80;;;;;;4988791;28;835;-68
2023/06/24 08:43:11;;;;;;;;;;;20.80;74.80;;;;;;4988502;28;1907;-67
2023/06/24 08:45:37;;;;;;;;;;;20.80;74.80;;;;;;4983553;28;943;-67
2023/06/24 08:48:03;;;;;;;;;;;20.80;74.70;;;;;;4999529;28;1665;-67
2023/06/24 08:50:31;;;;;;;;;;;20.80;74.80;;;;;;4998969;28;1277;-67
2023/06/24 08:52:56;;;;;;;;;;;20.80;74.80;;;;;;4980948;28;873;-66
2023/06/24 08:55:22;;;;;;;;;;;20.80;74.80;;;;;;5000005;28;843;-67
2023/06/24 08:57:48;;;;;;;;;;;20.80;74.80;;;;;;4983445;28;822;-68
2023/06/24 09:00:13;;;;;;;;;;;20.80;74.80;;;;;;4984656;28;1256;-68
2023/06/24 09:02:39;;;;;;;;;;;20.80;74.80;;;;;;4983141;28;1915;-68
2023/06/24 09:05:05;;;;;;;;;;;20.80;74.80;;;;;;4987518;28;793;-68
2023/06/24 09:07:30;;;;;;;;;;;20.80;74.80;;;;;;4981803;28;877;-68
2023/06/24 09:09:56;;;;;;;;;;;20.80;74.70;;;;;;4985891;28;1254;-68
2023/06/24 09:12:22;;;;;;;;;;;20.80;74.70;;;;;;4988501;28;864;-68
2023/06/24 09:14:48;;;;;;;;;;;20.80;74.70;;;;;;4982159;28;849;-68
2023/06/24 09:17:13;;;;;;;;;;;20.80;74.80;;;;;;4984144;28;826;-68
2023/06/24 09:19:39;;;;;;;;;;;20.80;74.80;;;;;;4982909;28;1385;-68
2023/06/24 09:22:05;;;;;;;;;;;20.80;74.70;;;;;;4989150;28;1894;-68
2023/06/24 09:24:31;;;;;;;;;;;20.80;74.70;;;;;;4984542;28;872;-68
2023/06/24 09:26:59;;;;;;;;;;;20.80;74.70;;;;;;4984657;28;1413;-68
2023/06/24 09:29:25;;;;;;;;;;;20.80;74.70;;;;;;4983557;28;1284;-68
2023/06/24 09:31:55;;;;;;;;;;;20.80;74.70;;;;;;4980280;28;1218;-68
2023/06/24 09:34:21;;;;;;;;;;;20.80;74.70;;;;;;4983551;28;935;-68
2023/06/24 09:36:51;;;;;;;;;;;20.80;74.70;;;;;;4981345;28;871;-68
2023/06/24 09:39:16;;;;;;;;;;;20.80;74.70;;;;;;4981607;28;1267;-68
2023/06/24 09:41:42;;;;;;;;;;;20.80;74.70;;;;;;4981678;28;1969;-68
2023/06/24 09:44:10;;;;;;;;;;;20.80;74.70;;;;;;4980601;28;870;-68
2023/06/24 09:46:37;;;;;;;;;;;20.80;74.70;;;;;;4983367;28;836;-68
2023/06/24 09:49:03;;;;;;;;;;;20.80;74.70;;;;;;4988828;28;1377;-68
2023/06/24 09:51:29;;;;;;;;;;;20.80;74.70;;;;;;4988988;28;864;-68
2023/06/24 09:53:56;;;;;;;;;;;20.80;74.70;;;;;;4984280;28;865;-68
2023/06/24 09:56:21;;;;;;;;;;;20.80;74.70;;;;;;4987948;28;865;-68
2023/06/24 09:58:47;;;;;;;;;;;20.80;74.70;;;;;;4985126;28;1286;-68
2023/06/24 10:01:12;;;;;;;;;;;20.80;74.70;;;;;;4988694;28;878;-68
2023/06/24 10:03:38;;;;;;;;;;;20.80;74.70;;;;;;4992643;28;873;-68
2023/06/24 10:06:04;;;;;;;;;;;20.80;74.70;;;;;;4985111;28;872;-68
2023/06/24 10:08:30;;;;;;;;;;;20.80;74.70;;;;;;4984625;28;1219;-68
2023/06/24 10:10:55;;;;;;;;;;;20.80;74.70;;;;;;4987693;28;1400;-68
2023/06/24 10:13:21;;;;;;;;;;;20.80;74.70;;;;;;4989568;28;1292;-70
2023/06/24 10:15:46;;;;;;;;;;;20.80;74.70;;;;;;4990097;28;1335;-68
2023/06/24 10:18:30;;;;;;;;;;;20.80;74.70;;;;;;4988215;28;1386;-68
2023/06/24 10:20:56;;;;;;;;;;;20.80;74.70;;;;;;4986360;28;1411;-68
2023/06/24 10:23:21;;;;;;;;;;;20.80;74.70;;;;;;4987895;28;1899;-67
2023/06/24 10:25:47;;;;;;;;;;;20.80;74.70;;;;;;4988919;28;1397;-68
2023/06/24 10:28:12;;;;;;;;;;;20.80;74.70;;;;;;4989651;28;1588;-69
2023/06/24 10:30:38;;;;;;;;;;;20.80;74.70;;;;;;4990218;28;1347;-67
2023/06/24 10:33:03;;;;;;;;;;;20.80;74.70;;;;;;4987073;28;863;-67
2023/06/24 10:35:32;;;;;;;;;;;20.80;74.70;;;;;;4984922;28;824;-66
2023/06/24 10:37:58;;;;;;;;;;;20.80;74.70;;;;;;4986155;28;844;-67
2023/06/24 10:40:42;;;;;;;;;;;20.80;74.70;;;;;;4981304;28;1365;-67
2023/06/24 10:43:22;;;;;;;;;;;20.80;75.50;;;;;;4987186;28;1902;-67
2023/06/24 10:45:51;;;;;;;;;;;20.80;74.70;;;;;;4983242;28;829;-67
2023/06/24 10:48:20;;;;;;;;;;;20.80;74.70;;;;;;4986900;28;1321;-67
2023/06/24 10:50:45;;;;;;;;;;;20.80;74.70;;;;;;4989309;28;833;-68
2023/06/24 10:53:11;;;;;;;;;;;20.80;74.70;;;;;;4988078;28;849;-67
2023/06/24 10:55:36;;;;;;;;;;;20.80;74.70;;;;;;4989032;28;876;-67
2023/06/24 10:58:09;;;;;;;;;;;20.80;74.70;;;;;;4983517;28;846;-67
2023/06/24 11:00:34;;;;;;;;;;;20.80;74.70;;;;;;4985835;28;1265;-67
2023/06/24 11:03:09;;;;;;;;;;;20.80;74.70;;;;;;4987327;28;1958;-67
2023/06/24 11:05:37;;;;;;;;;;;20.80;74.70;;;;;;4986899;28;859;-67
2023/06/24 11:08:02;;;;;;;;;;;20.80;74.70;;;;;;4988406;28;919;-67
2023/06/24 11:10:28;;;;;;;;;;;20.80;74.70;;;;;;4982913;28;1376;-67
2023/06/24 11:12:53;;;;;;;;;;;20.80;74.70;;;;;;4985295;28;891;-67
2023/06/24 11:15:19;;;;;;;;;;;20.80;74.70;;;;;;4990542;28;900;-67
2023/06/24 11:17:44;;;;;;;;;;;20.80;74.70;;;;;;4987617;28;892;-67
2023/06/24 11:20:11;;;;;;;;;;;20.80;74.60;;;;;;4983263;28;1263;-67
2023/06/24 11:22:37;;;;;;;;;;;20.80;74.70;;;;;;4984581;28;1898;-67
2023/06/24 11:25:02;;;;;;;;;;;20.80;74.70;;;;;;4985965;28;1285;-67
2023/06/24 11:27:28;;;;;;;;;;;20.80;74.60;;;;;;4990047;28;1453;-67
2023/06/24 11:29:54;;;;;;;;;;;20.80;74.70;;;;;;4985734;28;1363;-68
2023/06/24 11:32:19;;;;;;;;;;;20.80;74.70;;;;;;4986402;28;1295;-69
2023/06/24 11:34:45;;;;;;;;;;;20.80;74.70;;;;;;4984418;28;1950;-67
2023/06/24 11:37:11;;;;;;;;;;;20.80;74.70;;;;;;4984737;28;2090;-66
2023/06/24 11:39:36;;;;;;;;;;;20.80;74.70;;;;;;4989317;28;1305;-66
2023/06/24 11:42:02;;;;;;;;;;;20.80;74.30;;;;;;4987370;28;1895;-66
2023/06/24 11:44:27;;;;;;;;;;;20.90;73.80;;;;;;4985530;28;1438;-66
2023/06/24 11:46:53;;;;;;;;;;;20.90;72.60;;;;;;4984131;28;1027;-66
2023/06/24 11:49:18;;;;;;;;;;;20.90;69.80;;;;;;4984701;28;1287;-66
2023/06/24 11:51:47;;;;;;;;;;;21.00;70.60;;;;;;4987736;28;824;-66
2023/06/24 11:54:14;;;;;;;;;;;21.00;70.40;;;;;;4983699;28;836;-66
2023/06/24 11:56:39;;;;;;;;;;;21.00;70.10;;;;;;4984196;28;882;-66
2023/06/24 11:59:08;;;;;;;;;;;21.00;71.00;;;;;;4986480;28;1257;-66
2023/06/24 12:01:33;;;;;;;;;;;21.00;71.00;;;;;;4982836;28;1972;-66
2023/06/24 12:04:14;;;;;;;;;;;21.10;70.90;;;;;;4987902;28;817;-66
2023/06/24 12:06:42;;;;;;;;;;;21.10;70.70;;;;;;4988708;28;950;-66
2023/06/24 12:09:08;;;;;;;;;;;21.10;70.50;;;;;;4985740;28;1235;-66
2023/06/24 12:11:34;;;;;;;;;;;21.20;70.70;;;;;;4989106;28;856;-66
2023/06/24 12:13:59;;;;;;;;;;;21.10;70.90;;;;;;4984494;28;1023;-66
2023/06/24 12:16:26;;;;;;;;;;;21.10;70.60;;;;;;4982860;28;907;-66
2023/06/24 12:18:51;;;;;;;;;;;21.10;70.40;;;;;;4984256;28;1290;-66
2023/06/24 12:21:17;;;;;;;;;;;21.10;69.70;;;;;;4986903;28;1026;-66
2023/06/24 12:23:42;;;;;;;;;;;21.10;68.90;;;;;;4983582;28;1965;-66
2023/06/24 12:26:08;;;;;;;;;;;21.10;68.70;;;;;;4984150;28;857;-66
2023/06/24 12:28:33;;;;;;;;;;;21.10;67.90;;;;;;4985339;28;1413;-66
2023/06/24 12:30:59;;;;;;;;;;;21.10;66.20;;;;;;4987261;28;922;-66
2023/06/24 12:33:24;;;;;;;;;;;21.10;65.00;;;;;;4984240;28;847;-66
2023/06/24 12:35:50;;;;;;;;;;;21.10;65.90;;;;;;4985710;28;945;-66
2023/06/24 12:38:16;;;;;;;;;;;21.10;66.00;;;;;;4984003;28;956;-66
2023/06/24 12:40:41;;;;;;;;;;;21.10;66.30;;;;;;4982233;28;1320;-66
2023/06/24 12:43:07;;;;;;;;;;;21.20;66.40;;;;;;4989851;28;2391;-66
2023/06/24 12:45:32;;;;;;;;;;;21.20;66.10;;;;;;4983894;28;903;-66
2023/06/24 12:47:59;;;;;;;;;;;21.20;65.20;;;;;;4988482;28;1301;-66
2023/06/24 12:50:24;;;;;;;;;;;21.10;65.40;;;;;;4984629;28;1289;-66
2023/06/24 12:52:49;;;;;;;;;;;21.10;64.00;;;;;;4998595;28;1061;-66
2023/06/24 12:55:15;;;;;;;;;;;21.10;65.50;;;;;;4986596;28;936;-66
2023/06/24 12:57:40;;;;;;;;;;;21.10;64.50;;;;;;4985645;28;887;-66
2023/06/24 13:00:06;;;;;;;;;;;21.10;64.70;;;;;;4967575;28;1257;-66
2023/06/24 13:02:32;;;;;;;;;;;21.10;63.90;;;;;;4981702;28;1961;-66
2023/06/24 13:04:57;;;;;;;;;;;21.10;64.50;;;;;;4985498;28;821;-66
2023/06/24 13:07:23;;;;;;;;;;;21.20;64.90;;;;;;4985223;28;930;-66
2023/06/24 13:09:48;;;;;;;;;;;21.20;64.70;;;;;;4987639;28;1354;-66
2023/06/24 13:12:14;;;;;;;;;;;21.20;64.90;;;;;;4987714;28;985;-66
2023/06/24 13:14:39;;;;;;;;;;;21.20;65.40;;;;;;4988103;28;853;-66
2023/06/24 13:17:05;;;;;;;;;;;21.20;64.70;;;;;;4980871;28;842;-66
2023/06/24 13:19:32;;;;;;;;;;;21.20;64.20;;;;;;4979375;28;1350;-66
2023/06/24 13:21:58;;;;;;;;;;;21.20;64.20;;;;;;4984336;28;1895;-66
2023/06/24 13:24:23;;;;;;;;;;;21.20;63.80;;;;;;4982773;28;976;-66
2023/06/24 13:26:48;;;;;;;;;;;21.20;64.30;;;;;;4983569;28;861;-66
2023/06/24 13:29:14;;;;;;;;;;;21.20;64.90;;;;;;4985220;28;1367;-66
2023/06/24 13:31:40;;;;;;;;;;;21.20;64.70;;;;;;4987262;28;1284;-66
2023/06/24 13:34:05;;;;;;;;;;;21.20;65.10;;;;;;4987806;28;1497;-66
2023/06/24 13:36:32;;;;;;;;;;;21.20;64.50;;;;;;4988319;28;1642;-66
2023/06/24 13:38:57;;;;;;;;;;;21.20;63.90;;;;;;4982088;28;1486;-65
2023/06/24 13:41:23;;;;;;;;;;;21.20;64.60;;;;;;4986278;28;1911;-65
2023/06/24 13:43:50;;;;;;;;;;;21.20;65.10;;;;;;4982930;28;1341;-65
2023/06/24 13:46:15;;;;;;;;;;;21.20;65.90;;;;;;4980448;28;1321;-66
2023/06/24 13:48:42;;;;;;;;;;;21.20;65.40;;;;;;4982201;28;1337;-66
2023/06/24 13:51:08;;;;;;;;;;;21.30;65.80;;;;;;4985922;28;1275;-65
2023/06/24 13:53:33;;;;;;;;;;;21.30;65.70;;;;;;4986482;28;1053;-66
2023/06/24 13:55:59;;;;;;;;;;;21.30;64.90;;;;;;4983762;28;934;-66
2023/06/24 13:58:24;;;;;;;;;;;21.20;64.90;;;;;;4981832;28;1229;-67
2023/06/24 14:00:50;;;;;;;;;;;21.20;65.40;;;;;;4984563;28;943;-66
2023/06/24 14:03:15;;;;;;;;;;;21.20;65.10;;;;;;4980228;28;1974;-66
2023/06/24 14:05:41;;;;;;;;;;;21.20;65.10;;;;;;4984445;28;931;-65
2023/06/24 14:08:06;;;;;;;;;;;21.20;65.20;;;;;;4980737;28;843;-65
2023/06/24 14:10:31;;;;;;;;;;;21.20;65.60;;;;;;4983734;28;1330;-66
2023/06/24 14:12:57;;;;;;;;;;;21.20;65.90;;;;;;4985151;28;879;-65
2023/06/24 14:15:22;;;;;;;;;;;21.20;66.20;;;;;;4986188;28;1156;-66
2023/06/24 14:17:48;;;;;;;;;;;21.30;66.60;;;;;;4981225;28;1272;-66
2023/06/24 14:20:13;;;;;;;;;;;21.30;66.30;;;;;;4985122;28;1261;-65
2023/06/24 14:22:39;;;;;;;;;;;21.30;65.80;;;;;;4983783;28;1952;-66
2023/06/24 14:25:05;;;;;;;;;;;21.30;65.40;;;;;;4984495;28;802;-66
2023/06/24 14:27:30;;;;;;;;;;;21.30;65.10;;;;;;4986053;28;1419;-66
2023/06/24 14:29:55;;;;;;;;;;;21.30;64.10;;;;;;4983528;28;1271;-65